sensor_id;sensor_type;location;lat;lon;timestamp;temperature;humidity
13744;DHT22;6943;52.368;9.966;2022-10-16T00:02:24;13.90;1.00
13744;DHT22;6943;52.368;9.966;2022-10-16T00:04:49;13.90;1.00
13744;DHT22;6943;52.368;9.966;2022-10-16T00:07:15;13.80;88.60
13744;DHT22;6943;52.368;9.966;2022-10-16T00:09:40;13.80;37.40
13744;DHT22;6943;52.368;9.966;2022-10-16T00:12:06;13.80;36.60
13744;DHT22;6943;52.368;9.966;2022-10-16T00:14:32;13.80;1.00
13744;DHT22;6943;52.368;9.966;2022-10-16T00:16:57;13.80;1.00
13744;DHT22;6943;52.368;9.966;2022-10-16T00:19:23;13.80;1.00
13744;DHT22;6943;52.368;9.966;2022-10-16T00:21:48;13.80;1.00
13744;DHT22;6943;52.368;9.966;2022-10-16T00:24:14;13.80;27.40
13744;DHT22;6943;52.368;9.966;2022-10-16T00:26:40;13.80;99.90
13744;DHT22;6943;52.368;9.966;2022-10-16T00:29:07;13.80;99.90
13744;DHT22;6943;52.368;9.966;2022-10-16T00:31:33;13.80;99.90
13744;DHT22;6943;52.368;9.966;2022-10-16T00:33:59;13.70;1.00
13744;DHT22;6943;52.368;9.966;2022-10-16T00:36:26;13.70;1.00
13744;DHT22;6943;52.368;9.966;2022-10-16T00:38:53;13.70;1.00
13744;DHT22;6943;52.368;9.966;2022-10-16T00:41:20;13.70;1.00
13744;DHT22;6943;52.368;9.966;2022-10-16T00:43:50;13.60;1.00
13744;DHT22;6943;52.368;9.966;2022-10-16T00:46:38;13.60;1.00
13744;DHT22;6943;52.368;9.966;2022-10-16T00:49:13;13.50;1.00
13744;DHT22;6943;52.368;9.966;2022-10-16T00:51:42;13.60;1.00
13744;DHT22;6943;52.368;9.966;2022-10-16T00:54:12;13.50;1.00
13744;DHT22;6943;52.368;9.966;2022-10-16T00:56:39;13.50;1.00
13744;DHT22;6943;52.368;9.966;2022-10-16T00:59:07;13.50;17.70
13744;DHT22;6943;52.368;9.966;2022-10-16T01:01:36;13.50;59.50
13744;DHT22;6943;52.368;9.966;2022-10-16T01:04:01;13.50;99.90
13744;DHT22;6943;52.368;9.966;2022-10-16T01:06:36;13.50;99.90
13744;DHT22;6943;52.368;9.966;2022-10-16T01:09:26;13.40;99.90
13744;DHT22;6943;52.368;9.966;2022-10-16T01:12:23;13.40;99.90
13744;DHT22;6943;52.368;9.966;2022-10-16T01:14:56;13.40;99.90
13744;DHT22;6943;52.368;9.966;2022-10-16T01:20:32;13.40;99.90
13744;DHT22;6943;52.368;9.966;2022-10-16T01:25:55;13.30;99.90
13744;DHT22;6943;52.368;9.966;2022-10-16T01:28:29;13.30;99.90
13744;DHT22;6943;52.368;9.966;2022-10-16T01:31:00;13.30;99.90
13744;DHT22;6943;52.368;9.966;2022-10-16T01:33:40;13.30;99.90
13744;DHT22;6943;52.368;9.966;2022-10-16T01:36:21;13.30;99.90
13744;DHT22;6943;52.368;9.966;2022-10-16T01:38:49;13.20;99.90
13744;DHT22;6943;52.368;9.966;2022-10-16T01:41:31;13.30;99.90
13744;DHT22;6943;52.368;9.966;2022-10-16T01:44:08;13.20;99.90
13744;DHT22;6943;52.368;9.966;2022-10-16T01:46:38;13.10;99.90
13744;DHT22;6943;52.368;9.966;2022-10-16T01:49:05;13.10;99.90
13744;DHT22;6943;52.368;9.966;2022-10-16T01:51:32;13.00;99.90
13744;DHT22;6943;52.368;9.966;2022-10-16T01:54:00;13.00;99.90
13744;DHT22;6943;52.368;9.966;2022-10-16T01:56:28;13.00;99.90
13744;DHT22;6943;52.368;9.966;2022-10-16T01:59:01;13.00;99.90
13744;DHT22;6943;52.368;9.966;2022-10-16T02:01:30;13.00;99.90
13744;DHT22;6943;52.368;9.966;2022-10-16T02:04:00;12.90;99.90
13744;DHT22;6943;52.368;9.966;2022-10-16T02:06:27;12.90;99.90
13744;DHT22;6943;52.368;9.966;2022-10-16T02:08:53;12.90;99.90
13744;DHT22;6943;52.368;9.966;2022-10-16T02:11:19;12.90;99.90
13744;DHT22;6943;52.368;9.966;2022-10-16T02:14:04;12.90;99.90
13744;DHT22;6943;52.368;9.966;2022-10-16T02:16:39;12.90;99.90
13744;DHT22;6943;52.368;9.966;2022-10-16T02:19:06;12.90;99.90
13744;DHT22;6943;52.368;9.966;2022-10-16T02:21:43;12.90;99.90
13744;DHT22;6943;52.368;9.966;2022-10-16T02:26:49;12.80;99.90
13744;DHT22;6943;52.368;9.966;2022-10-16T02:29:20;12.80;99.90
13744;DHT22;6943;52.368;9.966;2022-10-16T02:31:50;12.80;99.90
13744;DHT22;6943;52.368;9.966;2022-10-16T02:34:18;12.80;99.90
13744;DHT22;6943;52.368;9.966;2022-10-16T02:36:48;12.70;99.90
13744;DHT22;6943;52.368;9.966;2022-10-16T02:39:15;12.70;99.90
13744;DHT22;6943;52.368;9.966;2022-10-16T02:41:42;12.70;99.90
13744;DHT22;6943;52.368;9.966;2022-10-16T02:44:07;12.70;99.90
13744;DHT22;6943;52.368;9.966;2022-10-16T02:46:33;12.60;99.90
13744;DHT22;6943;52.368;9.966;2022-10-16T02:48:58;12.60;99.90
13744;DHT22;6943;52.368;9.966;2022-10-16T02:51:24;12.60;99.90
13744;DHT22;6943;52.368;9.966;2022-10-16T02:53:49;12.60;99.90
13744;DHT22;6943;52.368;9.966;2022-10-16T02:56:15;12.60;99.90
13744;DHT22;6943;52.368;9.966;2022-10-16T02:58:40;12.60;99.90
13744;DHT22;6943;52.368;9.966;2022-10-16T03:01:06;12.60;99.90
13744;DHT22;6943;52.368;9.966;2022-10-16T03:03:31;12.60;99.90
13744;DHT22;6943;52.368;9.966;2022-10-16T03:05:57;12.60;99.90
13744;DHT22;6943;52.368;9.966;2022-10-16T03:08:22;12.60;99.90
13744;DHT22;6943;52.368;9.966;2022-10-16T03:10:51;12.60;99.90
13744;DHT22;6943;52.368;9.966;2022-10-16T03:13:17;12.60;99.90
13744;DHT22;6943;52.368;9.966;2022-10-16T03:15:43;12.60;99.90
13744;DHT22;6943;52.368;9.966;2022-10-16T03:18:09;12.50;99.90
13744;DHT22;6943;52.368;9.966;2022-10-16T03:20:34;12.60;99.90
13744;DHT22;6943;52.368;9.966;2022-10-16T03:23:00;12.50;99.90
13744;DHT22;6943;52.368;9.966;2022-10-16T03:25:25;12.50;99.90
13744;DHT22;6943;52.368;9.966;2022-10-16T03:27:51;12.50;99.90
13744;DHT22;6943;52.368;9.966;2022-10-16T03:30:17;12.40;99.90
13744;DHT22;6943;52.368;9.966;2022-10-16T03:32:44;12.40;99.90
13744;DHT22;6943;52.368;9.966;2022-10-16T03:35:10;12.40;99.90
13744;DHT22;6943;52.368;9.966;2022-10-16T03:37:35;12.40;99.90
13744;DHT22;6943;52.368;9.966;2022-10-16T03:40:01;12.40;99.90
13744;DHT22;6943;52.368;9.966;2022-10-16T03:42:27;12.30;99.90
13744;DHT22;6943;52.368;9.966;2022-10-16T03:44:53;12.30;99.90
13744;DHT22;6943;52.368;9.966;2022-10-16T03:47:18;12.30;99.90
13744;DHT22;6943;52.368;9.966;2022-10-16T03:49:47;12.30;99.90
13744;DHT22;6943;52.368;9.966;2022-10-16T03:52:13;12.30;99.90
13744;DHT22;6943;52.368;9.966;2022-10-16T03:54:38;12.30;99.90
13744;DHT22;6943;52.368;9.966;2022-10-16T03:57:04;12.30;99.90
13744;DHT22;6943;52.368;9.966;2022-10-16T03:59:30;13.80;99.90
13744;DHT22;6943;52.368;9.966;2022-10-16T04:01:55;12.30;99.90
13744;DHT22;6943;52.368;9.966;2022-10-16T04:04:21;12.30;99.90
13744;DHT22;6943;52.368;9.966;2022-10-16T04:06:46;12.30;99.90
13744;DHT22;6943;52.368;9.966;2022-10-16T04:09:12;12.30;99.90
13744;DHT22;6943;52.368;9.966;2022-10-16T04:11:37;12.30;99.90
13744;DHT22;6943;52.368;9.966;2022-10-16T04:14:03;11.80;99.90
13744;DHT22;6943;52.368;9.966;2022-10-16T04:16:28;12.30;99.90
13744;DHT22;6943;52.368;9.966;2022-10-16T04:18:54;12.30;99.90
13744;DHT22;6943;52.368;9.966;2022-10-16T04:21:19;12.40;99.90
13744;DHT22;6943;52.368;9.966;2022-10-16T04:23:45;14.00;99.90
13744;DHT22;6943;52.368;9.966;2022-10-16T04:26:10;12.40;99.90
13744;DHT22;6943;52.368;9.966;2022-10-16T04:28:36;12.40;99.90
13744;DHT22;6943;52.368;9.966;2022-10-16T04:31:04;12.40;99.90
13744;DHT22;6943;52.368;9.966;2022-10-16T04:33:29;12.40;99.90
13744;DHT22;6943;52.368;9.966;2022-10-16T04:36:00;12.30;99.90
13744;DHT22;6943;52.368;9.966;2022-10-16T04:38:26;12.40;99.90
13744;DHT22;6943;52.368;9.966;2022-10-16T04:40:52;12.40;99.90
13744;DHT22;6943;52.368;9.966;2022-10-16T04:43:18;12.50;99.90
13744;DHT22;6943;52.368;9.966;2022-10-16T04:45:44;12.50;99.90
13744;DHT22;6943;52.368;9.966;2022-10-16T04:48:09;12.50;99.90
13744;DHT22;6943;52.368;9.966;2022-10-16T04:50:35;12.50;99.90
13744;DHT22;6943;52.368;9.966;2022-10-16T04:53:00;12.50;99.90
13744;DHT22;6943;52.368;9.966;2022-10-16T04:55:26;12.50;99.90
13744;DHT22;6943;52.368;9.966;2022-10-16T04:57:51;12.50;99.90
13744;DHT22;6943;52.368;9.966;2022-10-16T05:00:17;12.50;99.90
13744;DHT22;6943;52.368;9.966;2022-10-16T05:02:42;12.50;99.90
13744;DHT22;6943;52.368;9.966;2022-10-16T05:05:08;12.50;99.90
13744;DHT22;6943;52.368;9.966;2022-10-16T05:07:34;12.50;99.90
13744;DHT22;6943;52.368;9.966;2022-10-16T05:09:59;12.50;99.90
13744;DHT22;6943;52.368;9.966;2022-10-16T05:12:25;12.60;99.90
13744;DHT22;6943;52.368;9.966;2022-10-16T05:14:50;12.50;99.90
13744;DHT22;6943;52.368;9.966;2022-10-16T05:17:16;12.60;99.90
13744;DHT22;6943;52.368;9.966;2022-10-16T05:19:41;12.60;99.90
13744;DHT22;6943;52.368;9.966;2022-10-16T05:22:07;12.70;99.90
13744;DHT22;6943;52.368;9.966;2022-10-16T05:24:33;12.80;99.90
13744;DHT22;6943;52.368;9.966;2022-10-16T05:26:58;12.80;99.90
13744;DHT22;6943;52.368;9.966;2022-10-16T05:29:24;12.70;99.90
13744;DHT22;6943;52.368;9.966;2022-10-16T05:31:50;12.70;99.90
13744;DHT22;6943;52.368;9.966;2022-10-16T05:34:16;12.60;99.90
13744;DHT22;6943;52.368;9.966;2022-10-16T05:36:42;12.60;99.90
13744;DHT22;6943;52.368;9.966;2022-10-16T05:39:10;12.50;99.90
13744;DHT22;6943;52.368;9.966;2022-10-16T05:41:36;12.50;99.90
13744;DHT22;6943;52.368;9.966;2022-10-16T05:44:04;12.50;99.90
13744;DHT22;6943;52.368;9.966;2022-10-16T05:46:30;12.40;99.90
13744;DHT22;6943;52.368;9.966;2022-10-16T05:48:55;12.40;99.90
13744;DHT22;6943;52.368;9.966;2022-10-16T05:51:21;12.40;99.90
13744;DHT22;6943;52.368;9.966;2022-10-16T05:53:46;12.30;99.90
13744;DHT22;6943;52.368;9.966;2022-10-16T05:56:12;12.30;99.90
13744;DHT22;6943;52.368;9.966;2022-10-16T05:58:38;12.30;99.90
13744;DHT22;6943;52.368;9.966;2022-10-16T06:01:11;12.30;99.90
13744;DHT22;6943;52.368;9.966;2022-10-16T06:03:37;12.40;99.90
13744;DHT22;6943;52.368;9.966;2022-10-16T06:06:10;12.40;99.90
13744;DHT22;6943;52.368;9.966;2022-10-16T06:08:36;12.40;99.90
13744;DHT22;6943;52.368;9.966;2022-10-16T06:11:03;12.40;99.90
13744;DHT22;6943;52.368;9.966;2022-10-16T06:13:29;12.40;99.90
13744;DHT22;6943;52.368;9.966;2022-10-16T06:15:57;12.20;99.90
13744;DHT22;6943;52.368;9.966;2022-10-16T06:18:23;12.50;99.90
13744;DHT22;6943;52.368;9.966;2022-10-16T06:20:49;12.60;99.90
13744;DHT22;6943;52.368;9.966;2022-10-16T06:23:14;12.70;99.90
13744;DHT22;6943;52.368;9.966;2022-10-16T06:25:40;12.70;99.90
13744;DHT22;6943;52.368;9.966;2022-10-16T06:28:05;12.80;99.90
13744;DHT22;6943;52.368;9.966;2022-10-16T06:30:31;12.80;99.90
13744;DHT22;6943;52.368;9.966;2022-10-16T06:32:56;12.80;99.90
13744;DHT22;6943;52.368;9.966;2022-10-16T06:35:22;12.80;99.90
13744;DHT22;6943;52.368;9.966;2022-10-16T06:37:47;12.90;99.90
13744;DHT22;6943;52.368;9.966;2022-10-16T06:40:13;14.20;99.90
13744;DHT22;6943;52.368;9.966;2022-10-16T06:42:40;13.00;99.90
13744;DHT22;6943;52.368;9.966;2022-10-16T06:45:06;13.10;99.90
13744;DHT22;6943;52.368;9.966;2022-10-16T06:47:31;13.20;99.90
13744;DHT22;6943;52.368;9.966;2022-10-16T06:49:57;13.30;99.90
13744;DHT22;6943;52.368;9.966;2022-10-16T06:52:22;13.40;99.90
13744;DHT22;6943;52.368;9.966;2022-10-16T06:54:48;13.50;99.90
13744;DHT22;6943;52.368;9.966;2022-10-16T06:57:14;13.60;99.90
13744;DHT22;6943;52.368;9.966;2022-10-16T06:59:39;13.80;99.90
13744;DHT22;6943;52.368;9.966;2022-10-16T07:02:05;14.00;99.90
13744;DHT22;6943;52.368;9.966;2022-10-16T07:04:32;14.20;99.90
13744;DHT22;6943;52.368;9.966;2022-10-16T07:06:59;14.50;99.90
13744;DHT22;6943;52.368;9.966;2022-10-16T07:09:25;14.70;99.90
13744;DHT22;6943;52.368;9.966;2022-10-16T07:11:50;14.80;99.90
13744;DHT22;6943;52.368;9.966;2022-10-16T07:14:19;15.10;99.90
13744;DHT22;6943;52.368;9.966;2022-10-16T07:16:45;15.40;99.90
13744;DHT22;6943;52.368;9.966;2022-10-16T07:19:10;15.70;99.90
13744;DHT22;6943;52.368;9.966;2022-10-16T07:21:38;15.90;99.90
13744;DHT22;6943;52.368;9.966;2022-10-16T07:24:06;16.60;99.90
13744;DHT22;6943;52.368;9.966;2022-10-16T07:26:34;17.70;99.90
13744;DHT22;6943;52.368;9.966;2022-10-16T07:29:00;18.30;1.00
13744;DHT22;6943;52.368;9.966;2022-10-16T07:31:26;19.00;1.00
13744;DHT22;6943;52.368;9.966;2022-10-16T07:33:52;19.30;1.00
13744;DHT22;6943;52.368;9.966;2022-10-16T07:36:19;19.60;1.00
13744;DHT22;6943;52.368;9.966;2022-10-16T07:38:45;19.50;1.00
13744;DHT22;6943;52.368;9.966;2022-10-16T07:41:13;19.20;1.00
13744;DHT22;6943;52.368;9.966;2022-10-16T07:43:39;18.80;1.00
13744;DHT22;6943;52.368;9.966;2022-10-16T07:46:05;18.40;1.00
13744;DHT22;6943;52.368;9.966;2022-10-16T07:48:33;19.00;1.00
13744;DHT22;6943;52.368;9.966;2022-10-16T07:51:00;20.20;1.00
13744;DHT22;6943;52.368;9.966;2022-10-16T07:53:26;21.80;99.90
13744;DHT22;6943;52.368;9.966;2022-10-16T07:55:52;22.90;99.90
13744;DHT22;6943;52.368;9.966;2022-10-16T07:58:17;22.80;99.90
13744;DHT22;6943;52.368;9.966;2022-10-16T08:00:43;22.30;99.90
13744;DHT22;6943;52.368;9.966;2022-10-16T08:03:08;21.50;99.90
13744;DHT22;6943;52.368;9.966;2022-10-16T08:05:34;20.80;99.90
13744;DHT22;6943;52.368;9.966;2022-10-16T08:08:01;20.80;99.90
13744;DHT22;6943;52.368;9.966;2022-10-16T08:10:28;21.40;99.90
13744;DHT22;6943;52.368;9.966;2022-10-16T08:12:54;22.90;99.90
13744;DHT22;6943;52.368;9.966;2022-10-16T08:15:20;23.90;99.90
13744;DHT22;6943;52.368;9.966;2022-10-16T08:18:02;24.50;69.10
13744;DHT22;6943;52.368;9.966;2022-10-16T08:20:29;24.80;12.10
13744;DHT22;6943;52.368;9.966;2022-10-16T08:22:55;25.10;1.00
13744;DHT22;6943;52.368;9.966;2022-10-16T08:25:22;26.20;1.00
13744;DHT22;6943;52.368;9.966;2022-10-16T08:27:48;26.90;1.00
13744;DHT22;6943;52.368;9.966;2022-10-16T08:30:15;27.60;1.00
13744;DHT22;6943;52.368;9.966;2022-10-16T08:32:41;27.40;1.00
13744;DHT22;6943;52.368;9.966;2022-10-16T08:35:11;27.40;1.00
13744;DHT22;6943;52.368;9.966;2022-10-16T08:37:36;27.60;1.00
13744;DHT22;6943;52.368;9.966;2022-10-16T08:40:03;27.60;1.00
13744;DHT22;6943;52.368;9.966;2022-10-16T08:45:19;26.60;1.00
13744;DHT22;6943;52.368;9.966;2022-10-16T08:48:16;26.20;1.00
13744;DHT22;6943;52.368;9.966;2022-10-16T08:50:40;25.50;1.00
13744;DHT22;6943;52.368;9.966;2022-10-16T08:53:06;25.20;1.00
13744;DHT22;6943;52.368;9.966;2022-10-16T08:55:42;25.20;1.00
13744;DHT22;6943;52.368;9.966;2022-10-16T08:58:20;25.10;1.00
13744;DHT22;6943;52.368;9.966;2022-10-16T09:00:49;24.00;1.00
13744;DHT22;6943;52.368;9.966;2022-10-16T09:22:53;24.80;1.00
13744;DHT22;6943;52.368;9.966;2022-10-16T09:25:21;23.50;1.00
13744;DHT22;6943;52.368;9.966;2022-10-16T09:27:48;21.90;1.00
13744;DHT22;6943;52.368;9.966;2022-10-16T09:30:19;20.60;99.90
13744;DHT22;6943;52.368;9.966;2022-10-16T09:32:48;19.90;99.90
13744;DHT22;6943;52.368;9.966;2022-10-16T09:35:17;19.40;99.90
13744;DHT22;6943;52.368;9.966;2022-10-16T09:37:45;19.10;99.90
13744;DHT22;6943;52.368;9.966;2022-10-16T09:42:57;18.70;99.90
13744;DHT22;6943;52.368;9.966;2022-10-16T09:45:26;18.60;99.90
13744;DHT22;6943;52.368;9.966;2022-10-16T09:47:54;18.50;1.00
13744;DHT22;6943;52.368;9.966;2022-10-16T09:50:29;18.40;1.00
13744;DHT22;6943;52.368;9.966;2022-10-16T09:53:14;18.40;1.00
13744;DHT22;6943;52.368;9.966;2022-10-16T09:55:50;18.40;1.00
13744;DHT22;6943;52.368;9.966;2022-10-16T09:58:16;18.30;1.00
13744;DHT22;6943;52.368;9.966;2022-10-16T10:00:52;18.30;1.00
13744;DHT22;6943;52.368;9.966;2022-10-16T10:03:37;18.30;1.00
13744;DHT22;6943;52.368;9.966;2022-10-16T10:06:21;18.30;1.00
13744;DHT22;6943;52.368;9.966;2022-10-16T10:08:59;18.30;1.00
13744;DHT22;6943;52.368;9.966;2022-10-16T10:14:20;18.30;1.00
13744;DHT22;6943;52.368;9.966;2022-10-16T10:16:47;18.30;1.00
13744;DHT22;6943;52.368;9.966;2022-10-16T10:19:17;18.30;1.00
13744;DHT22;6943;52.368;9.966;2022-10-16T10:21:43;18.30;1.00
13744;DHT22;6943;52.368;9.966;2022-10-16T10:24:17;18.40;1.00
13744;DHT22;6943;52.368;9.966;2022-10-16T10:26:54;18.50;99.90
13744;DHT22;6943;52.368;9.966;2022-10-16T10:29:31;18.50;99.90
13744;DHT22;6943;52.368;9.966;2022-10-16T10:35:16;18.80;99.90
13744;DHT22;6943;52.368;9.966;2022-10-16T10:43:39;19.20;99.90
13744;DHT22;6943;52.368;9.966;2022-10-16T10:46:11;19.30;99.90
13744;DHT22;6943;52.368;9.966;2022-10-16T10:57:48;19.70;99.90
13744;DHT22;6943;52.368;9.966;2022-10-16T11:08:52;19.20;99.90
13744;DHT22;6943;52.368;9.966;2022-10-16T11:11:24;19.00;99.90
13744;DHT22;6943;52.368;9.966;2022-10-16T11:21:49;18.40;99.90
13744;DHT22;6943;52.368;9.966;2022-10-16T11:24:23;18.40;99.90
13744;DHT22;6943;52.368;9.966;2022-10-16T11:26:53;18.40;99.90
13744;DHT22;6943;52.368;9.966;2022-10-16T11:29:24;18.30;99.90
13744;DHT22;6943;52.368;9.966;2022-10-16T11:31:57;18.20;99.90
13744;DHT22;6943;52.368;9.966;2022-10-16T11:34:27;18.30;99.90
13744;DHT22;6943;52.368;9.966;2022-10-16T11:37:02;18.30;99.90
13744;DHT22;6943;52.368;9.966;2022-10-16T11:39:30;18.50;99.90
13744;DHT22;6943;52.368;9.966;2022-10-16T11:42:07;18.50;99.90
13744;DHT22;6943;52.368;9.966;2022-10-16T11:44:41;18.40;99.90
13744;DHT22;6943;52.368;9.966;2022-10-16T11:49:45;18.40;99.90
13744;DHT22;6943;52.368;9.966;2022-10-16T11:52:17;18.30;99.90
13744;DHT22;6943;52.368;9.966;2022-10-16T11:57:32;18.50;99.90
13744;DHT22;6943;52.368;9.966;2022-10-16T12:00:08;18.60;99.90
13744;DHT22;6943;52.368;9.966;2022-10-16T12:03:08;18.60;99.90
13744;DHT22;6943;52.368;9.966;2022-10-16T12:08:40;18.60;99.90
13744;DHT22;6943;52.368;9.966;2022-10-16T12:11:08;18.60;99.90
13744;DHT22;6943;52.368;9.966;2022-10-16T12:13:39;18.70;99.90
13744;DHT22;6943;52.368;9.966;2022-10-16T12:16:25;18.70;99.90
13744;DHT22;6943;52.368;9.966;2022-10-16T12:19:11;18.80;99.90
13744;DHT22;6943;52.368;9.966;2022-10-16T12:21:36;19.00;99.90
13744;DHT22;6943;52.368;9.966;2022-10-16T12:24:03;19.10;99.90
13744;DHT22;6943;52.368;9.966;2022-10-16T12:26:33;19.20;99.90
13744;DHT22;6943;52.368;9.966;2022-10-16T12:31:56;19.30;99.90
13744;DHT22;6943;52.368;9.966;2022-10-16T12:34:23;19.40;99.90
13744;DHT22;6943;52.368;9.966;2022-10-16T12:36:51;19.40;99.90
13744;DHT22;6943;52.368;9.966;2022-10-16T12:39:24;19.40;99.90
13744;DHT22;6943;52.368;9.966;2022-10-16T12:42:05;19.40;99.90
13744;DHT22;6943;52.368;9.966;2022-10-16T12:44:42;19.50;99.90
13744;DHT22;6943;52.368;9.966;2022-10-16T12:47:37;19.50;99.90
13744;DHT22;6943;52.368;9.966;2022-10-16T12:50:36;19.50;99.90
13744;DHT22;6943;52.368;9.966;2022-10-16T12:53:03;19.60;99.90
13744;DHT22;6943;52.368;9.966;2022-10-16T12:55:40;19.70;99.90
13744;DHT22;6943;52.368;9.966;2022-10-16T13:00:56;19.90;99.90
13744;DHT22;6943;52.368;9.966;2022-10-16T13:11:26;20.20;99.90
13744;DHT22;6943;52.368;9.966;2022-10-16T13:17:26;20.00;99.90
13744;DHT22;6943;52.368;9.966;2022-10-16T13:25:40;19.60;99.90
13744;DHT22;6943;52.368;9.966;2022-10-16T13:28:09;19.60;99.90
13744;DHT22;6943;52.368;9.966;2022-10-16T13:30:43;19.50;99.90
13744;DHT22;6943;52.368;9.966;2022-10-16T13:33:14;19.50;99.90
13744;DHT22;6943;52.368;9.966;2022-10-16T13:35:52;19.50;99.90
13744;DHT22;6943;52.368;9.966;2022-10-16T13:38:21;19.50;99.90
13744;DHT22;6943;52.368;9.966;2022-10-16T13:43:16;19.40;99.90
13744;DHT22;6943;52.368;9.966;2022-10-16T13:45:53;19.40;99.90
13744;DHT22;6943;52.368;9.966;2022-10-16T13:48:18;19.40;99.90
13744;DHT22;6943;52.368;9.966;2022-10-16T13:50:44;19.40;99.90
13744;DHT22;6943;52.368;9.966;2022-10-16T13:53:13;19.30;99.90
13744;DHT22;6943;52.368;9.966;2022-10-16T13:55:39;19.30;99.90
13744;DHT22;6943;52.368;9.966;2022-10-16T13:58:08;19.30;99.90
13744;DHT22;6943;52.368;9.966;2022-10-16T14:00:34;19.40;99.90
13744;DHT22;6943;52.368;9.966;2022-10-16T14:03:06;19.40;99.90
13744;DHT22;6943;52.368;9.966;2022-10-16T14:05:33;19.40;99.90
13744;DHT22;6943;52.368;9.966;2022-10-16T14:07:59;19.30;99.90
13744;DHT22;6943;52.368;9.966;2022-10-16T14:10:28;19.30;99.90
13744;DHT22;6943;52.368;9.966;2022-10-16T14:13:00;19.20;99.90
13744;DHT22;6943;52.368;9.966;2022-10-16T14:15:26;19.10;99.90
13744;DHT22;6943;52.368;9.966;2022-10-16T14:17:53;19.00;99.90
13744;DHT22;6943;52.368;9.966;2022-10-16T14:20:22;19.00;99.90
13744;DHT22;6943;52.368;9.966;2022-10-16T14:23:04;19.00;99.90
13744;DHT22;6943;52.368;9.966;2022-10-16T14:25:43;18.90;99.90
13744;DHT22;6943;52.368;9.966;2022-10-16T14:28:23;18.90;99.90
13744;DHT22;6943;52.368;9.966;2022-10-16T14:30:59;18.90;99.90
13744;DHT22;6943;52.368;9.966;2022-10-16T14:36:13;18.80;99.90
13744;DHT22;6943;52.368;9.966;2022-10-16T14:38:41;18.80;99.90
13744;DHT22;6943;52.368;9.966;2022-10-16T14:41:07;18.70;99.90
13744;DHT22;6943;52.368;9.966;2022-10-16T14:43:38;18.70;99.90
13744;DHT22;6943;52.368;9.966;2022-10-16T14:46:12;18.70;99.90
13744;DHT22;6943;52.368;9.966;2022-10-16T14:48:45;18.60;99.90
13744;DHT22;6943;52.368;9.966;2022-10-16T14:51:18;18.60;99.90
13744;DHT22;6943;52.368;9.966;2022-10-16T14:53:45;18.50;99.90
13744;DHT22;6943;52.368;9.966;2022-10-16T14:56:20;18.50;99.90
13744;DHT22;6943;52.368;9.966;2022-10-16T14:58:47;18.40;99.90
13744;DHT22;6943;52.368;9.966;2022-10-16T15:01:13;18.40;99.90
13744;DHT22;6943;52.368;9.966;2022-10-16T15:03:38;18.30;99.90
13744;DHT22;6943;52.368;9.966;2022-10-16T15:06:18;18.30;99.90
13744;DHT22;6943;52.368;9.966;2022-10-16T15:08:44;18.20;99.90
13744;DHT22;6943;52.368;9.966;2022-10-16T15:11:14;18.10;99.90
13744;DHT22;6943;52.368;9.966;2022-10-16T15:13:40;18.10;99.90
13744;DHT22;6943;52.368;9.966;2022-10-16T15:16:14;18.00;99.90
13744;DHT22;6943;52.368;9.966;2022-10-16T15:18:39;17.90;99.90
13744;DHT22;6943;52.368;9.966;2022-10-16T15:21:05;17.90;99.90
13744;DHT22;6943;52.368;9.966;2022-10-16T15:23:31;17.80;99.90
13744;DHT22;6943;52.368;9.966;2022-10-16T15:25:57;17.80;99.90
13744;DHT22;6943;52.368;9.966;2022-10-16T15:28:23;17.60;99.90
13744;DHT22;6943;52.368;9.966;2022-10-16T15:30:54;17.60;99.90
13744;DHT22;6943;52.368;9.966;2022-10-16T15:33:23;17.60;99.90
13744;DHT22;6943;52.368;9.966;2022-10-16T15:35:50;17.50;99.90
13744;DHT22;6943;52.368;9.966;2022-10-16T15:38:18;17.50;99.90
13744;DHT22;6943;52.368;9.966;2022-10-16T15:40:43;17.30;99.90
13744;DHT22;6943;52.368;9.966;2022-10-16T15:43:09;17.20;99.90
13744;DHT22;6943;52.368;9.966;2022-10-16T15:45:35;17.10;1.00
13744;DHT22;6943;52.368;9.966;2022-10-16T15:48:01;17.00;1.00
13744;DHT22;6943;52.368;9.966;2022-10-16T15:50:27;16.90;1.00
13744;DHT22;6943;52.368;9.966;2022-10-16T15:52:52;16.70;1.00
13744;DHT22;6943;52.368;9.966;2022-10-16T15:55:18;16.60;1.00
13744;DHT22;6943;52.368;9.966;2022-10-16T15:57:44;16.50;1.00
13744;DHT22;6943;52.368;9.966;2022-10-16T16:00:13;16.40;1.00
13744;DHT22;6943;52.368;9.966;2022-10-16T16:02:41;16.30;1.00
13744;DHT22;6943;52.368;9.966;2022-10-16T16:05:07;16.30;1.00
13744;DHT22;6943;52.368;9.966;2022-10-16T16:07:37;16.10;1.00
13744;DHT22;6943;52.368;9.966;2022-10-16T16:10:05;16.00;1.00
13744;DHT22;6943;52.368;9.966;2022-10-16T16:12:31;15.90;1.00
13744;DHT22;6943;52.368;9.966;2022-10-16T16:14:57;15.90;1.00
13744;DHT22;6943;52.368;9.966;2022-10-16T16:17:22;15.80;1.00
13744;DHT22;6943;52.368;9.966;2022-10-16T16:19:49;15.70;1.00
13744;DHT22;6943;52.368;9.966;2022-10-16T16:22:15;15.70;37.90
13744;DHT22;6943;52.368;9.966;2022-10-16T16:24:40;15.60;57.10
13744;DHT22;6943;52.368;9.966;2022-10-16T16:27:06;15.60;90.40
13744;DHT22;6943;52.368;9.966;2022-10-16T16:29:32;15.50;86.80
13744;DHT22;6943;52.368;9.966;2022-10-16T16:31:59;15.40;99.90
13744;DHT22;6943;52.368;9.966;2022-10-16T16:34:26;15.40;99.90
13744;DHT22;6943;52.368;9.966;2022-10-16T16:36:52;15.30;99.90
13744;DHT22;6943;52.368;9.966;2022-10-16T16:39:18;15.10;99.90
13744;DHT22;6943;52.368;9.966;2022-10-16T16:41:44;15.00;1.00
13744;DHT22;6943;52.368;9.966;2022-10-16T16:44:11;15.00;1.00
13744;DHT22;6943;52.368;9.966;2022-10-16T16:46:37;14.90;1.00
13744;DHT22;6943;52.368;9.966;2022-10-16T16:49:05;14.80;1.00
13744;DHT22;6943;52.368;9.966;2022-10-16T16:51:31;14.70;1.00
13744;DHT22;6943;52.368;9.966;2022-10-16T16:53:57;14.60;1.00
13744;DHT22;6943;52.368;9.966;2022-10-16T16:56:23;14.60;1.00
13744;DHT22;6943;52.368;9.966;2022-10-16T16:58:51;14.50;1.00
13744;DHT22;6943;52.368;9.966;2022-10-16T17:01:17;14.40;1.00
13744;DHT22;6943;52.368;9.966;2022-10-16T17:03:44;14.40;1.00
13744;DHT22;6943;52.368;9.966;2022-10-16T17:06:11;14.30;10.20
13744;DHT22;6943;52.368;9.966;2022-10-16T17:08:37;14.40;59.50
13744;DHT22;6943;52.368;9.966;2022-10-16T17:11:04;14.40;91.40
13744;DHT22;6943;52.368;9.966;2022-10-16T17:13:32;14.50;42.00
13744;DHT22;6943;52.368;9.966;2022-10-16T17:16:00;14.60;1.00
13744;DHT22;6943;52.368;9.966;2022-10-16T17:18:25;14.70;1.00
13744;DHT22;6943;52.368;9.966;2022-10-16T17:20:51;14.80;1.00
13744;DHT22;6943;52.368;9.966;2022-10-16T17:23:18;14.90;1.00
13744;DHT22;6943;52.368;9.966;2022-10-16T17:25:44;14.90;1.00
13744;DHT22;6943;52.368;9.966;2022-10-16T17:28:12;15.00;1.00
13744;DHT22;6943;52.368;9.966;2022-10-16T17:30:42;15.00;1.00
13744;DHT22;6943;52.368;9.966;2022-10-16T17:33:09;15.00;1.00
13744;DHT22;6943;52.368;9.966;2022-10-16T17:35:40;15.00;1.00
13744;DHT22;6943;52.368;9.966;2022-10-16T17:38:06;15.00;1.00
13744;DHT22;6943;52.368;9.966;2022-10-16T17:40:32;14.90;1.00
13744;DHT22;6943;52.368;9.966;2022-10-16T17:42:57;14.90;1.00
13744;DHT22;6943;52.368;9.966;2022-10-16T17:45:23;14.80;1.00
13744;DHT22;6943;52.368;9.966;2022-10-16T17:47:48;14.80;1.00